createdAt,value
2023-02-09T05:02:31.143Z,7.95
2023-02-09T05:04:57.780Z,7.83
2023-02-09T05:07:26.469Z,8.00
2023-02-09T05:09:53.058Z,8.25
2023-02-09T05:12:19.614Z,8.15
2023-02-09T05:14:46.162Z,8.30
2023-02-09T05:17:12.969Z,8.17
2023-02-09T05:19:39.493Z,8.13
2023-02-09T05:22:06.130Z,8.57
2023-02-09T05:24:32.724Z,7.25
2023-02-09T05:26:59.289Z,8.27
2023-02-09T05:29:26.024Z,7.50
2023-02-09T05:31:52.627Z,7.03
2023-02-09T05:34:19.183Z,8.50
2023-02-09T05:36:45.949Z,7.45
2023-02-09T05:39:12.525Z,7.50
2023-02-09T05:41:57.853Z,7.10
2023-02-09T05:44:24.486Z,7.68
2023-02-09T05:46:51.020Z,7.70
2023-02-09T05:49:17.670Z,6.80
2023-02-09T05:51:44.200Z,7.70
2023-02-09T05:54:10.733Z,7.40
2023-02-09T05:56:38.049Z,7.32
2023-02-09T05:59:04.922Z,7.55
2023-02-09T06:01:31.463Z,7.30
2023-02-09T06:03:57.952Z,7.35
2023-02-09T06:06:24.527Z,7.13
2023-02-09T06:08:51.019Z,7.68
2023-02-09T06:11:17.614Z,8.30
2023-02-09T06:13:44.181Z,7.57
2023-02-09T06:16:11.007Z,8.13
2023-02-09T06:18:38.727Z,8.50
2023-02-09T06:21:05.855Z,8.38
2023-02-09T06:23:34.957Z,8.80
2023-02-09T06:26:06.490Z,8.57
2023-02-09T06:28:33.096Z,8.20
2023-02-09T06:30:59.728Z,8.00
2023-02-09T06:33:26.711Z,7.90
2023-02-09T06:35:53.217Z,7.60
2023-02-09T06:38:20.076Z,8.13
2023-02-09T06:40:47.569Z,8.38
2023-02-09T06:43:14.230Z,7.27
2023-02-09T06:45:41.232Z,8.50
2023-02-09T06:48:08.826Z,8.13
2023-02-09T06:50:37.014Z,8.38
2023-02-09T06:53:04.536Z,7.70
2023-02-09T06:55:31.624Z,8.47
2023-02-09T06:57:58.197Z,7.63
2023-02-09T07:00:24.841Z,8.35
2023-02-09T07:02:53.126Z,7.88
2023-02-09T07:05:20.573Z,8.77
2023-02-09T07:07:47.263Z,8.57
2023-02-09T07:10:15.903Z,8.40
2023-02-09T07:12:45.439Z,8.93
2023-02-09T07:15:13.623Z,7.78
2023-02-09T07:17:40.235Z,8.30
2023-02-09T07:20:07.362Z,7.97
2023-02-09T07:22:34.157Z,7.95
2023-02-09T07:25:00.948Z,8.90
2023-02-09T07:27:27.755Z,8.55
2023-02-09T07:29:54.287Z,8.52
2023-02-09T07:32:22.846Z,7.93
2023-02-09T07:34:49.559Z,8.60
2023-02-09T07:37:16.319Z,9.07
2023-02-09T07:39:43.026Z,8.52
2023-02-09T07:42:09.680Z,9.27
2023-02-09T07:44:36.211Z,8.30
2023-02-09T07:47:02.817Z,8.30
2023-02-09T07:49:29.369Z,8.07
2023-02-09T07:51:55.972Z,9.13
2023-02-09T07:54:22.554Z,8.30
2023-02-09T07:56:49.066Z,8.70
2023-02-09T07:59:15.789Z,8.65
2023-02-09T08:01:42.386Z,9.35
2023-02-09T08:04:08.958Z,8.43
2023-02-09T08:06:46.364Z,8.98
2023-02-09T08:09:15.388Z,8.57
2023-02-09T08:11:43.476Z,8.65
2023-02-09T08:14:32.974Z,8.23
2023-02-09T08:17:23.120Z,8.05
2023-02-09T08:19:58.759Z,8.55
2023-02-09T08:22:31.101Z,8.40
2023-02-09T08:24:59.827Z,8.65
2023-02-09T08:27:26.696Z,7.72
2023-02-09T08:29:53.456Z,8.80
2023-02-09T08:32:20.089Z,8.52
2023-02-09T08:34:46.636Z,9.00
2023-02-09T08:37:13.233Z,8.60
2023-02-09T08:39:39.790Z,9.48
2023-02-09T08:42:06.389Z,9.45
2023-02-09T08:44:33.036Z,9.40
2023-02-09T08:46:59.750Z,8.83
2023-02-09T08:49:26.409Z,8.85
2023-02-09T08:51:52.925Z,8.98
2023-02-09T08:54:19.823Z,9.07
2023-02-09T08:56:46.327Z,8.65
2023-02-09T08:59:12.858Z,9.07
2023-02-09T09:01:40.590Z,8.45
2023-02-09T09:04:07.638Z,9.50
2023-02-09T09:06:34.783Z,8.90
2023-02-09T09:09:01.536Z,8.63
2023-02-09T09:11:29.603Z,8.77
2023-02-09T09:13:57.461Z,9.55
2023-02-09T09:16:24.180Z,9.18
2023-02-09T09:18:51.205Z,9.55
2023-02-09T09:21:19.099Z,9.00
2023-02-09T09:23:46.771Z,9.27
2023-02-09T09:26:13.868Z,9.90
2023-02-09T09:28:40.433Z,9.60
2023-02-09T09:31:12.638Z,9.95
2023-02-09T09:33:40.367Z,9.73
2023-02-09T09:36:07.697Z,9.57
2023-02-09T09:38:35.626Z,9.75
2023-02-09T09:41:03.878Z,9.63
2023-02-09T09:43:39.206Z,9.52
2023-02-09T09:46:07.896Z,9.82
2023-02-09T09:48:54.089Z,9.80
2023-02-09T09:51:33.740Z,9.65
2023-02-09T09:54:03.143Z,9.38
2023-02-09T09:56:31.729Z,9.38
2023-02-09T09:59:01.022Z,8.95
2023-02-09T10:01:30.882Z,9.57
2023-02-09T10:04:02.339Z,9.13
2023-02-09T10:06:32.854Z,9.30
2023-02-09T10:09:15.662Z,9.85
2023-02-09T10:12:03.467Z,9.90
2023-02-09T10:14:29.997Z,9.73
2023-02-09T10:16:56.574Z,9.45
2023-02-09T10:19:30.332Z,9.80
2023-02-09T10:21:56.857Z,10.00
2023-02-09T10:24:29.328Z,9.73
2023-02-09T10:27:01.859Z,10.27
2023-02-09T10:29:28.601Z,10.32
2023-02-09T10:32:02.532Z,10.70
2023-02-09T10:34:43.227Z,9.60
2023-02-09T10:37:18.920Z,10.50
2023-02-09T10:39:48.989Z,10.90
2023-02-09T10:42:24.436Z,10.77
2023-02-09T10:44:54.963Z,10.68
2023-02-09T10:47:23.448Z,10.57
2023-02-09T10:50:02.038Z,10.73
2023-02-09T10:52:36.482Z,11.20
2023-02-09T10:55:16.856Z,10.40
2023-02-09T10:57:43.446Z,10.68
2023-02-09T11:00:15.720Z,10.73
2023-02-09T11:02:56.676Z,10.68
2023-02-09T11:05:23.182Z,11.60
2023-02-09T11:08:21.815Z,11.13
2023-02-09T11:11:02.649Z,11.63
2023-02-09T11:13:32.110Z,16.23
2023-02-09T11:16:22.109Z,12.05
2023-02-09T11:18:57.428Z,11.67
2023-02-09T11:21:45.172Z,10.98
2023-02-09T11:24:54.085Z,11.18
2023-02-09T11:27:45.449Z,11.90
2023-02-09T11:30:24.164Z,11.07
2023-02-09T11:33:19.322Z,15.30
2023-02-09T11:35:45.833Z,12.23
2023-02-09T11:38:20.312Z,14.93
2023-02-09T11:40:53.744Z,12.70
2023-02-09T11:43:26.837Z,12.60
2023-02-09T11:46:00.908Z,11.83
2023-02-09T11:48:34.251Z,12.90
2023-02-09T11:51:13.434Z,13.30
2023-02-09T11:53:51.217Z,12.52
2023-02-09T11:56:21.249Z,12.50
2023-02-09T11:59:03.660Z,13.13
2023-02-09T12:01:36.251Z,12.30
2023-02-09T12:04:05.667Z,13.40
2023-02-09T12:06:58.413Z,13.40
2023-02-09T12:09:48.823Z,13.68
2023-02-09T12:12:27.394Z,13.80
2023-02-09T12:15:26.279Z,13.57
2023-02-09T12:18:02.447Z,14.65
2023-02-09T12:20:44.771Z,14.40
2023-02-09T12:23:30.378Z,13.45
2023-02-09T12:26:00.842Z,14.80
2023-02-09T12:28:27.526Z,14.30
2023-02-09T12:30:59.553Z,14.05
2023-02-09T12:33:26.153Z,15.50
2023-02-09T12:36:25.414Z,15.63
2023-02-09T12:38:56.599Z,15.77
2023-02-09T12:41:40.751Z,15.80
2023-02-09T12:44:10.734Z,14.55
2023-02-09T12:46:53.439Z,14.95
2023-02-09T12:49:29.226Z,16.63
2023-02-09T12:52:02.423Z,15.63
2023-02-09T12:54:32.442Z,15.95
2023-02-09T12:57:18.832Z,15.15
2023-02-09T13:00:00.659Z,15.02
2023-02-09T13:02:49.920Z,15.23
2023-02-09T13:05:34.086Z,15.63
2023-02-09T13:08:18.199Z,15.48
2023-02-09T13:10:48.725Z,15.75
2023-02-09T13:13:21.672Z,15.68
2023-02-09T13:16:07.055Z,13.10
2023-02-09T13:19:00.438Z,15.80
2023-02-09T13:21:56.297Z,16.00
2023-02-09T13:24:32.915Z,15.73
2023-02-09T13:26:59.614Z,16.65
2023-02-09T13:29:28.786Z,16.17
2023-02-09T13:32:15.838Z,17.48
2023-02-09T13:34:51.058Z,16.17
2023-02-09T13:37:47.102Z,16.65
2023-02-09T13:40:23.948Z,17.65
2023-02-09T13:43:05.957Z,16.65
2023-02-09T13:45:32.528Z,16.30
2023-02-09T13:48:00.602Z,17.60
2023-02-09T13:50:28.409Z,19.23
2023-02-09T13:53:07.089Z,19.33
2023-02-09T13:55:35.394Z,20.20
2023-02-09T13:58:05.354Z,18.40
2023-02-09T14:00:42.510Z,19.20
2023-02-09T14:03:23.315Z,17.95
2023-02-09T14:05:58.880Z,17.38
2023-02-09T14:08:26.927Z,17.75
2023-02-09T14:11:18.981Z,17.77
2023-02-09T14:13:50.892Z,17.70
2023-02-09T14:16:18.871Z,18.27
2023-02-09T14:18:53.955Z,17.75
2023-02-09T14:21:38.451Z,17.90
2023-02-09T14:24:13.842Z,18.00
2023-02-09T14:26:43.123Z,19.63
2023-02-09T14:29:32.294Z,19.35
2023-02-09T14:32:01.610Z,20.42
2023-02-09T14:34:37.200Z,20.17
2023-02-09T14:37:23.715Z,20.40
2023-02-09T14:40:02.053Z,19.03
2023-02-09T14:42:30.220Z,19.08
2023-02-09T14:45:25.477Z,18.25
2023-02-09T14:47:52.048Z,18.85
2023-02-09T14:50:22.024Z,19.92
2023-02-09T14:52:53.425Z,19.53
2023-02-09T14:55:25.251Z,18.20
2023-02-09T14:57:51.860Z,19.45
2023-02-09T15:00:22.465Z,18.92
2023-02-09T15:02:50.810Z,19.08
2023-02-09T15:05:18.001Z,19.80
2023-02-09T15:07:58.568Z,18.95
2023-02-09T15:10:29.739Z,19.85
2023-02-09T15:12:57.195Z,20.23
2023-02-09T15:15:25.481Z,20.70
2023-02-09T15:17:54.183Z,19.40
2023-02-09T15:20:26.322Z,18.33
2023-02-09T15:22:54.108Z,18.85
2023-02-09T15:25:21.320Z,19.05
2023-02-09T15:27:52.542Z,18.83
2023-02-09T15:30:28.116Z,19.53
2023-02-09T15:32:55.563Z,19.48
2023-02-09T15:35:25.308Z,20.50
2023-02-09T15:37:57.872Z,19.55
2023-02-09T15:40:49.271Z,19.95
2023-02-09T15:43:37.597Z,20.10
2023-02-09T15:46:23.589Z,20.15
2023-02-09T15:48:50.152Z,20.40
2023-02-09T15:51:17.053Z,28.80
2023-02-09T15:53:44.234Z,25.67
2023-02-09T15:56:13.509Z,31.63
2023-02-09T15:58:42.748Z,29.00
2023-02-09T16:01:14.451Z,23.35
2023-02-09T16:03:42.389Z,23.15
2023-02-09T16:06:19.019Z,24.70
2023-02-09T16:08:47.163Z,24.40
2023-02-09T16:11:23.195Z,38.95
2023-02-09T16:13:50.230Z,25.27
2023-02-09T16:16:19.596Z,20.17
2023-02-09T16:18:46.932Z,21.08
2023-02-09T16:21:23.895Z,22.90
2023-02-09T16:23:52.125Z,22.70
2023-02-09T16:26:19.899Z,25.00
2023-02-09T16:28:47.333Z,23.92
2023-02-09T16:31:14.495Z,21.63
2023-02-09T16:33:43.191Z,21.90
2023-02-09T16:36:16.533Z,22.85
2023-02-09T16:38:43.364Z,22.65
2023-02-09T16:41:32.816Z,20.60
2023-02-09T16:44:00.329Z,21.45
2023-02-09T16:46:30.202Z,22.17
2023-02-09T16:48:58.431Z,20.85
2023-02-09T16:51:25.020Z,21.67
2023-02-09T16:53:52.363Z,21.70
2023-02-09T16:56:20.408Z,21.02
2023-02-09T16:58:48.306Z,21.43
2023-02-09T17:01:20.637Z,21.88
2023-02-09T17:03:57.622Z,22.50
2023-02-09T17:06:27.522Z,36.20
2023-02-09T17:08:56.588Z,37.30
2023-02-09T17:11:25.033Z,74.73
2023-02-09T17:13:51.751Z,67.97
2023-02-09T17:16:24.467Z,31.20
2023-02-09T17:18:54.619Z,52.22
2023-02-09T17:21:25.003Z,26.63
2023-02-09T17:23:52.829Z,27.83
2023-02-09T17:26:20.090Z,22.42
2023-02-09T17:28:46.871Z,21.85
2023-02-09T17:31:20.581Z,21.45
2023-02-09T17:33:50.580Z,22.25
2023-02-09T17:36:26.262Z,21.47
2023-02-09T17:38:53.850Z,21.13
2023-02-09T17:41:26.126Z,22.48
2023-02-09T17:43:53.590Z,23.70
2023-02-09T17:46:20.472Z,31.20
2023-02-09T17:48:47.752Z,23.73
2023-02-09T17:51:21.258Z,23.60
2023-02-09T17:53:48.838Z,22.90
2023-02-09T17:56:16.823Z,22.00
2023-02-09T17:58:44.570Z,22.88
2023-02-09T18:01:26.395Z,23.73
2023-02-09T18:03:58.728Z,36.40
2023-02-09T18:06:35.107Z,38.75
2023-02-09T18:09:04.111Z,54.78
2023-02-09T18:11:52.678Z,46.97
2023-02-09T18:14:21.397Z,42.50
2023-02-09T18:16:48.099Z,40.33
2023-02-09T18:19:18.478Z,37.90
2023-02-09T18:21:54.947Z,37.65
2023-02-09T18:24:23.763Z,29.83
2023-02-09T18:26:53.221Z,28.13
2023-02-09T18:29:23.577Z,24.50
2023-02-09T18:31:50.992Z,24.88
2023-02-09T18:34:17.748Z,23.80
2023-02-09T18:36:44.397Z,24.52
2023-02-09T18:39:10.997Z,25.53
2023-02-09T18:41:37.595Z,24.40
2023-02-09T18:44:04.184Z,24.15
2023-02-09T18:46:30.837Z,24.40
2023-02-09T18:48:57.520Z,23.30
2023-02-09T18:51:24.659Z,24.57
2023-02-09T18:53:51.321Z,24.08
2023-02-09T18:56:22.476Z,24.25
2023-02-09T18:58:52.881Z,24.38
2023-02-09T19:01:21.142Z,24.63
2023-02-09T19:03:51.880Z,24.23
2023-02-09T19:06:20.530Z,25.83
2023-02-09T19:08:48.809Z,26.90
2023-02-09T19:11:16.873Z,25.45
2023-02-09T19:14:03.733Z,26.75
2023-02-09T19:16:30.666Z,25.77
2023-02-09T19:18:58.338Z,26.40
2023-02-09T19:21:25.142Z,26.10
2023-02-09T19:23:51.729Z,26.45
2023-02-09T19:26:18.237Z,26.33
2023-02-09T19:28:44.790Z,25.80
2023-02-09T19:31:13.401Z,26.65
2023-02-09T19:33:39.956Z,27.20
2023-02-09T19:36:07.075Z,26.27
2023-02-09T19:38:33.625Z,27.75
2023-02-09T19:41:10.617Z,28.30
2023-02-09T19:43:39.372Z,28.05
2023-02-09T19:46:06.760Z,31.70
2023-02-09T19:48:33.403Z,27.20
2023-02-09T19:51:00.002Z,27.42
2023-02-09T19:53:27.077Z,26.67
2023-02-09T19:55:54.258Z,28.13
2023-02-09T19:58:24.159Z,28.50
2023-02-09T20:00:51.752Z,28.58
2023-02-09T20:03:18.748Z,30.08
2023-02-09T20:05:46.101Z,29.87
2023-02-09T20:08:16.335Z,28.50
2023-02-09T20:10:47.148Z,29.98
2023-02-09T20:13:14.640Z,29.35
2023-02-09T20:15:42.836Z,28.77
2023-02-09T20:18:10.193Z,29.63
2023-02-09T20:20:40.823Z,29.63
2023-02-09T20:23:08.161Z,28.73
2023-02-09T20:25:34.757Z,29.92
2023-02-09T20:28:01.399Z,29.27
2023-02-09T20:30:31.069Z,29.30
2023-02-09T20:32:57.836Z,29.58
2023-02-09T20:35:24.527Z,30.20
2023-02-09T20:37:52.877Z,29.75
2023-02-09T20:40:19.813Z,30.55
2023-02-09T20:43:05.034Z,30.20
2023-02-09T20:45:50.059Z,29.00
2023-02-09T20:48:17.363Z,29.23
2023-02-09T20:50:47.203Z,30.42
2023-02-09T20:53:14.046Z,30.58
2023-02-09T20:55:40.715Z,31.03
2023-02-09T20:58:07.302Z,32.22
2023-02-09T21:00:34.064Z,31.17
2023-02-09T21:03:00.739Z,30.60
2023-02-09T21:05:27.794Z,30.65
2023-02-09T21:07:55.449Z,30.17
2023-02-09T21:10:22.250Z,29.95
2023-02-09T21:12:48.800Z,31.88
2023-02-09T21:15:15.871Z,29.98
2023-02-09T21:17:47.764Z,28.50
2023-02-09T21:20:16.011Z,29.30
2023-02-09T21:22:42.587Z,29.33
2023-02-09T21:25:11.676Z,30.05
2023-02-09T21:27:39.059Z,29.33
2023-02-09T21:30:06.525Z,30.20
2023-02-09T21:32:35.943Z,28.10
2023-02-09T21:35:02.532Z,27.83
2023-02-09T21:37:32.315Z,28.23
2023-02-09T21:40:02.955Z,27.05
2023-02-09T21:42:31.218Z,27.23
2023-02-09T21:44:58.540Z,27.33
2023-02-09T21:47:30.865Z,26.40
2023-02-09T21:49:57.892Z,27.30
2023-02-09T21:52:25.244Z,28.55
2023-02-09T21:54:52.323Z,26.77
2023-02-09T21:57:18.896Z,28.27
2023-02-09T21:59:45.446Z,28.65
2023-02-09T22:02:17.289Z,26.65
2023-02-09T22:04:45.043Z,25.80
2023-02-09T22:07:11.742Z,26.13
2023-02-09T22:09:38.423Z,25.80
2023-02-09T22:12:05.624Z,26.45
2023-02-09T22:14:32.992Z,26.75
2023-02-09T22:16:59.684Z,25.40
2023-02-09T22:19:26.597Z,26.25
2023-02-09T22:21:53.175Z,26.33
2023-02-09T22:24:19.766Z,26.95
2023-02-09T22:26:47.217Z,26.88
2023-02-09T22:29:15.903Z,25.83
2023-02-09T22:31:43.709Z,26.80
2023-02-09T22:34:10.910Z,27.07
2023-02-09T22:36:37.821Z,26.73
2023-02-09T22:39:05.970Z,27.33
2023-02-09T22:41:32.790Z,26.15
2023-02-09T22:44:12.100Z,27.25
2023-02-09T22:46:41.414Z,25.33
2023-02-09T22:49:19.740Z,24.50
2023-02-09T22:51:48.457Z,24.90
2023-02-09T22:54:16.632Z,24.58
2023-02-09T22:56:43.657Z,22.77
2023-02-09T22:59:12.683Z,22.87
